createdAt,value
2022-10-18T00:01:49.903Z,102566.97
2022-10-18T00:04:53.497Z,102573.16
2022-10-18T00:07:57.013Z,102573.19
2022-10-18T00:11:00.585Z,102568.91
2022-10-18T00:14:05.691Z,102572.50
2022-10-18T00:17:09.286Z,102573.38
2022-10-18T00:20:15.488Z,102573.44
2022-10-18T00:23:19.030Z,102570.00
2022-10-18T00:26:25.247Z,102566.56
2022-10-18T00:29:30.423Z,102583.31
2022-10-18T00:32:38.384Z,102575.50
2022-10-18T00:35:41.927Z,102584.34
2022-10-18T00:38:46.787Z,102587.03
2022-10-18T00:41:51.675Z,102587.06
2022-10-18T00:45:25.501Z,102581.06
2022-10-18T00:48:29.340Z,102582.75
2022-10-18T00:51:37.867Z,102584.66
2022-10-18T00:54:45.573Z,102578.56
2022-10-18T00:57:50.788Z,102586.63
2022-10-18T01:00:55.744Z,102583.13
2022-10-18T01:03:59.361Z,102585.84
2022-10-18T01:07:13.821Z,102585.03
2022-10-18T01:10:31.647Z,102586.75
2022-10-18T01:13:51.296Z,102599.06
2022-10-18T01:17:05.019Z,102585.94
2022-10-18T01:20:43.019Z,102593.00
2022-10-18T01:24:37.573Z,102593.03
2022-10-18T01:27:54.362Z,102598.38
2022-10-18T01:31:03.358Z,102588.75
2022-10-18T01:34:13.150Z,102590.50
2022-10-18T01:37:21.286Z,102593.97
2022-10-18T01:40:26.533Z,102591.34
2022-10-18T01:43:32.960Z,102590.47
2022-10-18T01:46:40.998Z,102580.78
2022-10-18T01:49:44.608Z,102592.28
2022-10-18T01:52:52.950Z,102587.03
2022-10-18T01:56:22.822Z,102582.63
2022-10-18T01:59:44.830Z,102582.63
2022-10-18T02:02:57.804Z,102580.00
2022-10-18T02:06:11.509Z,102573.03
2022-10-18T02:09:24.815Z,102577.41
2022-10-18T02:12:32.903Z,102569.53
2022-10-18T02:15:44.601Z,102567.78
2022-10-18T02:18:59.054Z,102568.69
2022-10-18T02:22:03.557Z,102573.97
2022-10-18T02:25:18.013Z,102570.47
2022-10-18T02:31:38.268Z,102558.38
2022-10-18T02:34:50.458Z,102562.00
2022-10-18T02:37:58.272Z,102557.69
2022-10-18T02:41:01.950Z,102556.75
2022-10-18T02:44:05.785Z,102558.59
2022-10-18T02:47:12.578Z,102548.94
2022-10-18T02:50:17.714Z,102540.19
2022-10-18T02:53:21.303Z,102544.63
2022-10-18T02:56:24.855Z,102537.66
2022-10-18T02:59:28.465Z,102553.44
2022-10-18T03:02:32.089Z,102553.44
2022-10-18T03:05:37.011Z,102549.09
2022-10-18T03:08:40.691Z,102540.38
2022-10-18T03:11:44.288Z,102547.44
2022-10-18T03:14:47.819Z,102547.47
2022-10-18T03:17:51.369Z,102555.38
2022-10-18T03:20:56.326Z,102549.22
2022-10-18T03:23:59.879Z,102554.44
2022-10-18T03:27:05.339Z,102559.66
2022-10-18T03:30:11.745Z,102553.56
2022-10-18T03:33:15.420Z,102555.41
2022-10-18T03:36:20.300Z,102556.31
2022-10-18T03:39:23.866Z,102558.91
2022-10-18T03:42:27.461Z,102558.03
2022-10-18T03:45:31.609Z,102559.75
2022-10-18T03:48:35.415Z,102545.69
2022-10-18T03:51:40.372Z,102552.66
2022-10-18T03:54:43.918Z,102549.81
2022-10-18T03:57:47.467Z,102540.88
2022-10-18T04:00:52.195Z,102545.06
2022-10-18T04:03:55.694Z,102534.47
2022-10-18T04:07:00.610Z,102544.94
2022-10-18T04:10:04.337Z,102556.34
2022-10-18T04:13:09.057Z,102550.19
2022-10-18T04:16:12.574Z,102545.78
2022-10-18T04:19:16.627Z,102550.19
2022-10-18T04:22:21.543Z,102551.06
2022-10-18T04:25:26.095Z,102550.19
2022-10-18T04:28:29.749Z,102554.59
2022-10-18T04:31:33.407Z,102553.72
2022-10-18T04:34:37.067Z,102544.03
2022-10-18T04:37:42.369Z,102545.78
2022-10-18T04:40:45.934Z,102539.59
2022-10-18T04:43:49.512Z,102541.34
2022-10-18T04:46:53.086Z,102548.41
2022-10-18T04:49:56.614Z,102543.97
2022-10-18T04:53:01.552Z,102559.72
2022-10-18T04:56:05.159Z,102554.44
2022-10-18T04:59:08.727Z,102554.41
2022-10-18T05:02:12.333Z,102548.25
2022-10-18T05:05:16.112Z,102539.47
2022-10-18T05:08:21.157Z,102544.75
2022-10-18T05:11:25.039Z,102538.63
2022-10-18T05:14:31.764Z,102545.63
2022-10-18T05:17:35.805Z,102550.03
2022-10-18T05:20:39.336Z,102550.91
2022-10-18T05:23:44.391Z,102556.13
2022-10-18T05:26:48.347Z,102544.69
2022-10-18T05:29:51.874Z,102543.81
2022-10-18T05:32:55.411Z,102551.72
2022-10-18T05:35:59.232Z,102563.13
2022-10-18T05:39:06.335Z,102559.63
2022-10-18T05:42:10.080Z,102565.81
2022-10-18T05:45:13.628Z,102568.44
2022-10-18T05:48:17.308Z,102562.31
2022-10-18T05:51:20.996Z,102565.84
2022-10-18T05:54:26.031Z,102562.31
2022-10-18T05:57:30.019Z,102562.28
2022-10-18T06:00:33.904Z,102557.03
2022-10-18T06:03:38.135Z,102564.94
2022-10-18T06:06:41.829Z,102570.19
2022-10-18T06:09:46.799Z,102571.06
2022-10-18T06:12:50.387Z,102572.84
2022-10-18T06:15:57.817Z,102572.81
2022-10-18T06:19:01.566Z,102565.84
2022-10-18T06:22:05.091Z,102570.22
2022-10-18T06:25:11.199Z,102575.38
2022-10-18T06:28:14.817Z,102571.13
2022-10-18T06:31:19.169Z,102591.22
2022-10-18T06:34:22.978Z,102590.38
2022-10-18T06:37:26.641Z,102591.28
2022-10-18T06:40:37.797Z,102592.97
2022-10-18T06:43:41.451Z,102589.53
2022-10-18T06:46:47.431Z,102589.59
2022-10-18T06:49:50.998Z,102590.47
2022-10-18T06:52:54.608Z,102601.97
2022-10-18T06:56:03.573Z,102610.84
2022-10-18T06:59:07.331Z,102606.41
2022-10-18T07:02:15.795Z,102604.59
2022-10-18T07:05:19.615Z,102616.03
2022-10-18T07:08:23.201Z,102620.41
2022-10-18T07:11:28.786Z,102621.47
2022-10-18T07:14:32.365Z,102628.44
2022-10-18T07:17:35.915Z,102640.84
2022-10-18T07:20:39.682Z,102647.03
2022-10-18T07:23:46.247Z,102644.31
2022-10-18T07:26:51.328Z,102656.63
2022-10-18T07:29:54.886Z,102661.00
2022-10-18T07:32:58.473Z,102650.34
2022-10-18T07:36:03.509Z,102658.34
2022-10-18T07:39:07.887Z,102661.13
2022-10-18T07:42:12.873Z,102667.25
2022-10-18T07:45:25.150Z,102668.13
2022-10-18T07:48:29.287Z,102650.59
2022-10-18T07:51:34.793Z,102661.09
2022-10-18T07:54:38.500Z,102673.44
2022-10-18T07:57:43.611Z,102677.84
2022-10-18T08:00:47.112Z,102681.25
2022-10-18T08:03:51.781Z,102686.53
2022-10-18T08:06:55.351Z,102681.31
2022-10-18T08:09:58.840Z,102689.38
2022-10-18T08:13:05.345Z,102678.84
2022-10-18T08:16:11.834Z,102670.97
2022-10-18T08:19:15.393Z,102677.06
2022-10-18T08:22:18.911Z,102665.69
2022-10-18T08:25:22.609Z,102657.63
2022-10-18T08:28:27.553Z,102672.50
2022-10-18T08:31:31.532Z,102673.19
2022-10-18T08:34:35.150Z,102663.38
2022-10-18T08:37:38.775Z,102667.41
2022-10-18T08:40:45.279Z,102674.53
2022-10-18T08:44:02.095Z,102659.22
2022-10-18T08:47:16.021Z,102661.94
2022-10-18T08:50:24.040Z,102667.34
2022-10-18T08:53:39.261Z,102661.81
2022-10-18T08:56:54.003Z,102660.97
2022-10-18T08:59:58.990Z,102668.59
2022-10-18T09:03:27.244Z,102659.38
2022-10-18T09:06:36.851Z,102660.06
2022-10-18T09:09:48.640Z,102667.38
2022-10-18T09:13:18.707Z,102658.50
2022-10-18T09:16:33.394Z,102666.66
2022-10-18T09:20:04.920Z,102655.94
2022-10-18T09:23:21.034Z,102650.75
2022-10-18T09:26:26.842Z,102668.06
2022-10-18T09:29:54.255Z,102652.06
2022-10-18T09:33:17.641Z,102648.34
2022-10-18T09:36:25.561Z,102649.19
2022-10-18T09:39:34.871Z,102641.84
2022-10-18T09:42:54.424Z,102648.81
2022-10-18T09:45:59.158Z,102638.97
2022-10-18T09:49:16.269Z,102627.38
2022-10-18T09:52:28.369Z,102635.06
2022-10-18T09:55:39.824Z,102625.31
2022-10-18T09:58:47.092Z,102627.81
2022-10-18T10:01:50.719Z,102634.03
2022-10-18T10:04:55.999Z,102631.63
2022-10-18T10:08:02.474Z,102632.34
2022-10-18T10:11:06.471Z,102627.22
2022-10-18T10:14:18.026Z,102641.16
2022-10-18T10:17:26.466Z,102641.69
2022-10-18T10:20:42.830Z,102642.56
2022-10-18T10:23:53.725Z,102640.50
2022-10-18T10:27:04.366Z,102644.47
2022-10-18T10:30:27.680Z,102641.78
2022-10-18T10:33:38.563Z,102656.13
2022-10-18T10:36:50.262Z,102654.69
2022-10-18T10:40:18.827Z,102649.97
2022-10-18T10:43:42.565Z,102648.81
2022-10-18T10:46:46.787Z,102657.59
2022-10-18T10:49:50.310Z,102670.94
2022-10-18T10:52:56.355Z,102659.66
2022-10-18T10:56:01.709Z,102651.94
2022-10-18T10:59:15.565Z,102657.16
2022-10-18T11:02:24.444Z,102661.41
2022-10-18T11:05:30.022Z,102652.84
2022-10-18T11:08:43.638Z,102663.59
2022-10-18T11:12:02.810Z,102661.53
2022-10-18T11:15:22.194Z,102667.06
2022-10-18T11:18:31.555Z,102682.44
2022-10-18T11:21:35.518Z,102687.81
2022-10-18T11:24:40.461Z,102680.28
2022-10-18T11:27:56.695Z,102683.03
2022-10-18T11:31:13.886Z,102678.53
2022-10-18T11:34:44.562Z,102681.13
2022-10-18T11:38:13.607Z,102672.97
2022-10-18T11:41:32.826Z,102671.66
2022-10-18T11:44:48.790Z,102670.66
2022-10-18T11:48:04.117Z,102666.91
2022-10-18T11:51:19.787Z,102666.84
2022-10-18T11:55:07.118Z,102668.78
2022-10-18T11:58:34.098Z,102665.25
2022-10-18T12:01:49.106Z,102663.63
2022-10-18T12:08:30.383Z,102658.84
2022-10-18T12:11:45.442Z,102658.03
2022-10-18T12:14:57.764Z,102657.13
2022-10-18T12:18:10.135Z,102656.44
2022-10-18T12:21:14.555Z,102652.03
2022-10-18T12:24:23.849Z,102651.56
2022-10-18T12:27:42.177Z,102656.41
2022-10-18T12:31:01.212Z,102651.19
2022-10-18T12:34:28.263Z,102651.34
2022-10-18T12:38:09.948Z,102651.19
2022-10-18T12:41:22.481Z,102663.91
2022-10-18T12:44:32.800Z,102665.50
2022-10-18T12:47:38.099Z,102668.63
2022-10-18T12:50:44.961Z,102668.44
2022-10-18T12:53:55.932Z,102666.69
2022-10-18T12:57:01.375Z,102665.88
2022-10-18T13:00:05.655Z,102673.00
2022-10-18T13:03:56.008Z,102670.06
2022-10-18T13:07:33.784Z,102662.72
2022-10-18T13:10:38.263Z,102664.25
2022-10-18T13:14:08.719Z,102659.91
2022-10-18T13:17:33.433Z,102652.03
2022-10-18T13:20:49.192Z,102651.22
2022-10-18T13:24:26.100Z,102663.09
2022-10-18T13:27:45.712Z,102658.03
2022-10-18T13:30:58.741Z,102658.28
2022-10-18T13:34:29.410Z,102649.03
2022-10-18T13:37:34.452Z,102652.66
2022-10-18T13:40:39.192Z,102656.06
2022-10-18T13:44:13.109Z,102653.50
2022-10-18T13:47:34.467Z,102660.47
2022-10-18T13:50:44.291Z,102657.44
2022-10-18T13:54:03.046Z,102657.44
2022-10-18T13:57:26.140Z,102662.84
2022-10-18T14:00:52.935Z,102661.75
2022-10-18T14:04:46.628Z,102662.66
2022-10-18T14:07:52.195Z,102665.75
2022-10-18T14:11:06.099Z,102671.19
2022-10-18T14:14:21.244Z,102663.59
2022-10-18T14:17:36.427Z,102677.16
2022-10-18T14:21:01.359Z,102671.00
2022-10-18T14:24:22.450Z,102679.59
2022-10-18T14:27:29.779Z,102685.91
2022-10-18T14:30:33.642Z,102682.53
2022-10-18T14:33:40.115Z,102690.53
2022-10-18T14:36:48.907Z,102685.19
2022-10-18T14:39:52.749Z,102678.84
2022-10-18T14:42:57.876Z,102676.06
2022-10-18T14:46:28.939Z,102673.41
2022-10-18T14:49:34.854Z,102671.66
2022-10-18T14:52:39.305Z,102670.03
2022-10-18T14:55:45.061Z,102675.38
2022-10-18T14:58:50.206Z,102679.84
2022-10-18T15:01:59.715Z,102678.31
2022-10-18T15:05:10.008Z,102689.13
2022-10-18T15:08:13.815Z,102678.75
2022-10-18T15:11:18.762Z,102688.56
2022-10-18T15:14:24.222Z,102687.81
2022-10-18T15:17:30.960Z,102684.28
2022-10-18T15:20:42.250Z,102679.16
2022-10-18T15:23:45.795Z,102682.84
2022-10-18T15:26:51.505Z,102675.81
2022-10-18T15:29:56.918Z,102671.47
2022-10-18T15:33:03.904Z,102671.47
2022-10-18T15:36:27.285Z,102671.53
2022-10-18T15:39:31.818Z,102668.06
2022-10-18T15:42:39.456Z,102674.91
2022-10-18T15:45:48.936Z,102668.63
2022-10-18T15:48:52.573Z,102660.78
2022-10-18T15:52:38.132Z,102670.72
2022-10-18T15:55:52.459Z,102672.59
2022-10-18T15:58:58.018Z,102674.41
2022-10-18T16:02:03.324Z,102679.00
2022-10-18T16:05:07.527Z,102680.84
2022-10-18T16:08:24.131Z,102686.25
2022-10-18T16:11:28.311Z,102684.34
2022-10-18T16:14:33.134Z,102686.34
2022-10-18T16:17:38.068Z,102690.03
2022-10-18T16:20:41.625Z,102684.81
2022-10-18T16:23:45.726Z,102691.13
2022-10-18T16:26:50.035Z,102689.41
2022-10-18T16:29:53.758Z,102687.75
2022-10-18T16:32:58.824Z,102688.69
2022-10-18T16:36:04.595Z,102689.66
2022-10-18T16:39:15.164Z,102702.03
2022-10-18T16:42:18.974Z,102722.25
2022-10-18T16:45:22.503Z,102724.94
2022-10-18T16:48:27.943Z,102715.34
2022-10-18T16:51:31.531Z,102727.75
2022-10-18T16:54:35.771Z,102733.91
2022-10-18T16:57:39.526Z,102740.94
2022-10-18T17:00:43.306Z,102751.47
2022-10-18T17:03:48.919Z,102754.94
2022-10-18T17:06:55.640Z,102747.88
2022-10-18T17:09:59.246Z,102744.31
2022-10-18T17:13:02.891Z,102742.56
2022-10-18T17:16:07.453Z,102746.88
2022-10-18T17:19:14.850Z,102751.28
2022-10-18T17:22:18.406Z,102749.56
2022-10-18T17:25:23.861Z,102754.91
2022-10-18T17:28:27.442Z,102750.50
2022-10-18T17:31:34.607Z,102760.25
2022-10-18T17:37:49.774Z,102762.97
2022-10-18T17:40:54.480Z,102765.59
2022-10-18T17:43:58.292Z,102770.91
2022-10-18T17:47:02.031Z,102774.44
2022-10-18T17:50:07.807Z,102770.94
2022-10-18T17:53:12.135Z,102776.88
2022-10-18T17:56:17.050Z,102783.84
2022-10-18T17:59:20.763Z,102782.88
2022-10-18T18:02:24.291Z,102784.69
2022-10-18T18:05:32.595Z,102791.50
2022-10-18T18:08:36.111Z,102777.63
2022-10-18T18:11:43.507Z,102777.63
2022-10-18T18:14:48.179Z,102781.16
2022-10-18T18:17:57.208Z,102780.28
2022-10-18T18:21:02.652Z,102774.16
2022-10-18T18:24:07.047Z,102779.41
2022-10-18T18:27:10.560Z,102785.53
2022-10-18T18:30:15.562Z,102790.69
2022-10-18T18:33:19.284Z,102787.34
2022-10-18T18:36:28.845Z,102791.75
2022-10-18T18:39:35.749Z,102781.25
2022-10-18T18:42:39.564Z,102784.78
2022-10-18T18:45:53.140Z,102778.69
2022-10-18T18:48:58.671Z,102783.84
2022-10-18T18:52:03.716Z,102780.44
2022-10-18T18:55:08.296Z,102789.22
2022-10-18T18:58:12.953Z,102804.09
2022-10-18T19:01:19.968Z,102801.44
2022-10-18T19:04:23.907Z,102804.06
2022-10-18T19:07:28.860Z,102806.69
2022-10-18T19:10:32.886Z,102814.63
2022-10-18T19:13:36.615Z,102809.38
2022-10-18T19:16:42.128Z,102814.63
2022-10-18T19:19:45.702Z,102805.88
2022-10-18T19:22:51.452Z,102801.47
2022-10-18T19:25:55.167Z,102796.22
2022-10-18T19:29:08.346Z,102800.59
2022-10-18T19:32:14.011Z,102808.44
2022-10-18T19:35:17.680Z,102804.09
2022-10-18T19:38:22.715Z,102811.97
2022-10-18T19:41:26.611Z,102818.06
2022-10-18T19:44:32.825Z,102807.59
2022-10-18T19:47:38.437Z,102804.06
2022-10-18T19:50:43.171Z,102810.16
2022-10-18T19:53:48.419Z,102813.72
2022-10-18T19:56:52.122Z,102809.34
2022-10-18T19:59:56.738Z,102811.13
2022-10-18T20:03:00.659Z,102811.94
2022-10-18T20:06:05.051Z,102808.50
2022-10-18T20:09:14.689Z,102810.16
2022-10-18T20:12:21.484Z,102812.88
2022-10-18T20:15:25.148Z,102812.03
2022-10-18T20:18:28.769Z,102812.03
2022-10-18T20:21:35.913Z,102806.78
2022-10-18T20:24:41.143Z,102801.50
2022-10-18T20:27:44.717Z,102804.97
2022-10-18T20:30:48.223Z,102816.44
2022-10-18T20:33:57.320Z,102812.03
2022-10-18T20:37:00.906Z,102806.78
2022-10-18T20:40:06.651Z,102809.44
2022-10-18T20:43:10.233Z,102801.56
2022-10-18T20:46:13.869Z,102798.13
2022-10-18T20:49:18.386Z,102799.91
2022-10-18T20:52:22.877Z,102801.69
2022-10-18T20:55:30.152Z,102801.78
2022-10-18T20:58:34.743Z,102810.50
2022-10-18T21:01:40.149Z,102815.72
2022-10-18T21:04:43.771Z,102814.00
2022-10-18T21:07:47.331Z,102816.59
2022-10-18T21:10:52.279Z,102817.47
2022-10-18T21:13:58.979Z,102814.84
2022-10-18T21:17:02.546Z,102828.00
2022-10-18T21:20:08.276Z,102823.66
2022-10-18T21:23:11.849Z,102828.06
2022-10-18T21:26:21.904Z,102822.78
2022-10-18T21:29:25.864Z,102821.97
2022-10-18T21:32:31.167Z,102829.91
2022-10-18T21:35:37.404Z,102831.72
2022-10-18T21:38:41.609Z,102839.66
2022-10-18T21:41:47.775Z,102838.88
2022-10-18T21:44:51.339Z,102839.81
2022-10-18T21:47:54.956Z,102836.38
2022-10-18T21:51:03.504Z,102832.88
2022-10-18T21:54:12.553Z,102833.81
2022-10-18T21:57:17.547Z,102830.34
2022-10-18T22:00:21.260Z,102835.59
2022-10-18T22:03:24.968Z,102828.63
2022-10-18T22:06:32.360Z,102831.28
2022-10-18T22:09:36.084Z,102827.78
2022-10-18T22:12:41.002Z,102827.81
2022-10-18T22:15:44.551Z,102830.44
2022-10-18T22:18:50.877Z,102824.31
2022-10-18T22:21:54.576Z,102824.31
2022-10-18T22:24:58.294Z,102824.31
2022-10-18T22:28:03.331Z,102814.72
2022-10-18T22:31:14.296Z,102817.34
2022-10-18T22:34:20.562Z,102821.72
2022-10-18T22:37:24.103Z,102818.22
2022-10-18T22:40:27.931Z,102809.44
2022-10-18T22:43:32.850Z,102818.19
2022-10-18T22:46:37.082Z,102818.19
2022-10-18T22:49:40.584Z,102810.31
2022-10-18T22:52:44.139Z,102804.19
2022-10-18T22:55:49.484Z,102807.69
2022-10-18T22:58:56.047Z,102812.06
2022-10-18T23:02:00.132Z,102805.91
2022-10-18T23:05:03.723Z,102801.56
2022-10-18T23:08:07.386Z,102791.09
2022-10-18T23:11:10.919Z,102795.47
2022-10-18T23:14:15.828Z,102798.94
2022-10-18T23:17:19.380Z,102806.81
2022-10-18T23:20:23.376Z,102809.44
2022-10-18T23:23:26.923Z,102822.56
2022-10-18T23:26:30.488Z,102830.44
2022-10-18T23:29:35.446Z,102830.41
2022-10-18T23:32:40.363Z,102828.69
2022-10-18T23:35:43.897Z,102823.44
2022-10-18T23:38:48.014Z,102827.81
2022-10-18T23:41:51.525Z,102831.31
2022-10-18T23:44:56.944Z,102826.97
2022-10-18T23:48:00.527Z,102819.06
2022-10-18T23:51:04.735Z,102821.69
2022-10-18T23:54:08.298Z,102826.06
2022-10-18T23:57:11.823Z,102824.31
